Time;durP1;ratioP1;P1;durP2;ratioP2;P2;SDS_P1;SDS_P2;PMS_P1;PMS_P2;Temp;Humidity;BMP_temperature;BMP_pressure;BME280_temperature;BME280_humidity;BME280_pressure;Samples;Min_cycle;Max_cycle;Signal;HPM_P1;HPM_P2
2023/10/09 00:01:04;;;;;;;3.03;0.73;;;;;;;11.72;100.00;101752.50;5073213;28;20786;-72
2023/10/09 00:03:31;;;;;;;2.60;0.87;;;;;;;11.70;100.00;101743.84;5073452;28;20441;-72
2023/10/09 00:05:58;;;;;;;2.70;1.00;;;;;;;11.69;100.00;101746.88;5073299;28;20475;-72
2023/10/09 00:08:30;;;;;;;2.90;1.00;;;;;;;11.66;100.00;101744.69;5087636;22;20512;-67
2023/10/09 00:11:13;;;;;;;3.63;1.20;;;;;;;11.72;100.00;101749.00;5073792;28;20426;-67
2023/10/09 00:13:48;;;;;;;3.37;1.20;;;;;;;11.72;100.00;101725.38;5073206;28;20520;-67
2023/10/09 00:16:23;;;;;;;2.67;1.00;;;;;;;11.76;100.00;101739.19;5073390;28;20984;-67
2023/10/09 00:18:50;;;;;;;2.80;0.90;;;;;;;11.74;100.00;101742.22;5074042;28;20814;-68
2023/10/09 00:21:20;;;;;;;2.50;0.93;;;;;;;11.71;100.00;101726.47;5073545;28;20490;-68
2023/10/09 00:23:52;;;;;;;3.73;1.30;;;;;;;11.69;100.00;101711.56;5073908;28;20529;-69
2023/10/09 00:26:21;;;;;;;4.97;0.90;;;;;;;11.73;100.00;101705.31;5076153;28;20891;-66
2023/10/09 00:28:50;;;;;;;2.10;0.70;;;;;;;11.66;100.00;101710.22;5077202;28;20495;-66
2023/10/09 00:31:26;;;;;;;2.37;0.80;;;;;;;11.65;100.00;101713.22;5077514;28;20494;-66
2023/10/09 00:33:54;;;;;;;2.50;0.83;;;;;;;11.64;100.00;101712.38;5078134;28;20421;-66
2023/10/09 00:36:28;;;;;;;3.57;0.87;;;;;;;11.66;100.00;101698.56;5077209;28;20586;-66
2023/10/09 00:38:57;;;;;;;3.00;1.10;;;;;;;11.69;100.00;101692.56;5077796;28;20921;-66
2023/10/09 00:41:28;;;;;;;2.10;0.57;;;;;;;11.67;100.00;101690.13;5077184;28;20447;-66
2023/10/09 00:43:59;;;;;;;3.30;1.10;;;;;;;11.65;100.00;101683.38;5077718;28;20414;-66
2023/10/09 00:46:27;;;;;;;2.00;0.67;;;;;;;11.65;100.00;101686.09;5077098;28;20457;-66
2023/10/09 00:48:57;;;;;;;2.60;1.00;;;;;;;11.67;100.00;101670.31;5077427;28;20448;-66
2023/10/09 00:51:26;;;;;;;3.53;1.00;;;;;;;11.66;100.00;101669.50;5077340;28;20435;-66
2023/10/09 00:53:55;;;;;;;3.67;1.10;;;;;;;11.61;100.00;101664.13;5077237;28;20459;-66
2023/10/09 00:56:38;;;;;;;2.70;0.83;;;;;;;11.62;100.00;101663.03;5076657;28;20995;-66
2023/10/09 00:59:14;;;;;;;2.20;0.90;;;;;;;11.62;100.00;101652.16;5076894;28;20812;-66
2023/10/09 01:01:48;;;;;;;4.10;1.40;;;;;;;11.59;100.00;101656.25;5076668;28;20461;-66
2023/10/09 01:04:17;;;;;;;2.37;0.67;;;;;;;11.57;100.00;101655.72;5077061;28;20425;-66
2023/10/09 01:06:45;;;;;;;3.10;1.30;;;;;;;11.53;100.00;101649.25;5076892;28;20543;-66
2023/10/09 01:09:13;;;;;;;3.07;1.27;;;;;;;11.48;100.00;101634.91;5076483;28;20992;-66
2023/10/09 01:11:49;;;;;;;3.17;0.70;;;;;;;11.38;100.00;101630.34;5076305;28;20885;-66
2023/10/09 01:14:21;;;;;;;3.10;1.00;;;;;;;11.39;100.00;101625.75;5076686;28;20421;-66
2023/10/09 01:16:48;;;;;;;2.33;0.90;;;;;;;11.37;100.00;101624.09;5076408;28;20491;-66
2023/10/09 01:19:20;;;;;;;2.60;0.90;;;;;;;11.40;100.00;101624.63;5076848;28;20429;-66
2023/10/09 01:21:49;;;;;;;3.23;0.90;;;;;;;11.42;100.00;101615.13;5076483;28;20429;-66
2023/10/09 01:24:19;;;;;;;2.70;0.90;;;;;;;11.45;100.00;101594.75;5076427;28;20465;-66
2023/10/09 01:26:49;;;;;;;2.73;0.97;;;;;;;11.45;100.00;101584.72;5076446;28;20456;-66
2023/10/09 01:29:18;;;;;;;2.50;0.97;;;;;;;11.48;100.00;101575.22;5076297;28;20539;-66
2023/10/09 01:31:51;;;;;;;2.77;1.27;;;;;;;11.49;100.00;101564.06;5076647;28;20442;-66
2023/10/09 01:34:23;;;;;;;3.67;1.00;;;;;;;11.48;100.00;101542.66;5076501;28;20491;-66
2023/10/09 01:36:55;;;;;;;2.47;1.00;;;;;;;11.46;100.00;101544.81;5075584;28;20547;-66
2023/10/09 01:39:26;;;;;;;3.60;1.30;;;;;;;11.47;100.00;101541.84;5076633;28;20961;-66
2023/10/09 01:41:58;;;;;;;2.70;0.80;;;;;;;11.44;100.00;101536.16;5076306;28;20520;-66
2023/10/09 01:44:27;;;;;;;6.33;1.27;;;;;;;11.43;100.00;101518.28;5076147;28;20526;-66
2023/10/09 01:46:56;;;;;;;3.40;1.27;;;;;;;11.39;100.00;101511.81;5076293;28;20485;-66
2023/10/09 01:49:29;;;;;;;2.67;0.93;;;;;;;11.40;100.00;101518.84;5076331;28;20495;-66
2023/10/09 01:51:58;;;;;;;3.00;1.37;;;;;;;11.39;100.00;101517.22;5075805;28;20426;-66
2023/10/09 01:54:37;;;;;;;2.80;0.83;;;;;;;11.40;100.00;101535.91;5076540;28;20437;-66
2023/10/09 01:57:09;;;;;;;3.07;1.47;;;;;;;11.45;100.00;101527.75;5076017;28;20485;-66
2023/10/09 01:59:38;;;;;;;2.57;0.93;;;;;;;11.48;100.00;101513.63;5075760;28;20796;-66
2023/10/09 02:02:14;;;;;;;2.93;1.07;;;;;;;11.44;100.00;101500.91;5075781;28;20444;-67
2023/10/09 02:04:41;;;;;;;3.37;1.27;;;;;;;11.42;100.00;101505.78;5075802;28;20787;-69
2023/10/09 02:07:09;;;;;;;2.23;0.77;;;;;;;11.46;100.00;101523.13;5075504;28;20465;-66
2023/10/09 02:09:44;;;;;;;3.10;1.40;;;;;;;11.45;100.00;101521.50;5075647;28;20480;-66
2023/10/09 02:12:11;;;;;;;3.00;1.20;;;;;;;11.41;100.00;101526.69;5075541;28;20421;-66
2023/10/09 02:14:41;;;;;;;2.70;1.00;;;;;;;11.41;100.00;101531.31;5075432;28;20455;-66
2023/10/09 02:17:17;;;;;;;1.90;0.60;;;;;;;11.42;100.00;101533.75;5075494;28;20508;-66
2023/10/09 02:19:48;;;;;;;2.50;0.90;;;;;;;11.40;100.00;101497.94;5075440;28;20420;-66
2023/10/09 02:22:15;;;;;;;5.63;1.30;;;;;;;11.33;100.00;101497.44;5075563;28;20418;-66
2023/10/09 02:24:51;;;;;;;2.83;1.10;;;;;;;11.26;100.00;101508.63;5075151;28;20445;-66
2023/10/09 02:27:40;;;;;;;3.93;1.17;;;;;;;11.20;100.00;101514.38;5075166;28;20461;-66
2023/10/09 02:30:15;;;;;;;2.60;0.90;;;;;;;11.17;100.00;101518.47;5075077;28;20426;-65
2023/10/09 02:32:43;;;;;;;2.43;0.80;;;;;;;11.13;100.00;101519.31;5074807;28;20996;-65
2023/10/09 02:35:20;;;;;;;2.70;1.07;;;;;;;11.09;100.00;101525.28;5075331;28;20504;-65
2023/10/09 02:37:47;;;;;;;2.87;1.33;;;;;;;11.14;100.00;101508.19;5075210;28;20492;-65
2023/10/09 02:40:24;;;;;;;3.50;1.10;;;;;;;11.16;100.00;101508.72;5075230;28;20437;-65
2023/10/09 02:42:51;;;;;;;2.00;0.60;;;;;;;11.08;100.00;101485.72;5075333;28;20828;-65
2023/10/09 02:45:18;;;;;;;3.67;1.30;;;;;;;11.11;100.00;101462.63;5074735;28;20441;-64
2023/10/09 02:47:48;;;;;;;2.53;0.80;;;;;;;11.15;100.00;101446.63;5074772;28;20548;-64
2023/10/09 02:50:20;;;;;;;3.00;0.93;;;;;;;11.14;100.00;101453.94;5074190;28;20568;-65
2023/10/09 02:52:51;;;;;;;3.60;1.17;;;;;;;11.22;100.00;101452.53;5075125;28;20468;-65
2023/10/09 02:55:25;;;;;;;3.03;1.23;;;;;;;11.22;100.00;101444.41;5074687;28;20798;-65
2023/10/09 02:58:04;;;;;;;6.20;1.43;;;;;;;11.23;100.00;101443.31;5074909;28;20570;-65
2023/10/09 03:00:32;;;;;;;2.43;0.90;;;;;;;11.24;100.00;101450.34;5074227;28;20951;-65
2023/10/09 03:02:59;;;;;;;3.47;1.23;;;;;;;11.23;100.00;101441.38;5074615;28;20437;-65
2023/10/09 03:05:28;;;;;;;2.50;1.10;;;;;;;11.26;100.00;101430.00;5074351;28;20522;-65
2023/10/09 03:07:55;;;;;;;2.50;1.20;;;;;;;11.27;100.00;101428.09;5073922;28;20481;-65
2023/10/09 03:10:25;;;;;;;2.87;1.10;;;;;;;11.31;100.00;101424.50;5074727;28;20443;-65
2023/10/09 03:12:53;;;;;;;4.63;1.13;;;;;;;11.33;100.00;101407.94;5074674;28;20469;-64
2023/10/09 03:15:20;;;;;;;2.20;0.80;;;;;;;11.32;100.00;101406.34;5074003;28;20801;-64
2023/10/09 03:17:47;;;;;;;2.40;0.70;;;;;;;11.35;100.00;101409.28;5074052;28;20488;-64
2023/10/09 03:20:14;;;;;;;2.60;0.90;;;;;;;11.34;100.00;101401.44;5074478;28;20442;-64
2023/10/09 03:22:42;;;;;;;2.40;0.83;;;;;;;11.34;100.00;101396.81;5074187;28;20438;-64
2023/10/09 03:25:11;;;;;;;2.17;0.67;;;;;;;11.31;100.00;101391.97;5077508;28;20445;-65
2023/10/09 03:27:44;;;;;;;2.57;1.03;;;;;;;11.33;100.00;101384.38;5073314;28;20554;-64
2023/10/09 03:30:16;;;;;;;3.10;1.07;;;;;;;11.34;100.00;101377.84;5073982;28;20786;-65
2023/10/09 03:32:50;;;;;;;3.07;0.97;;;;;;;11.39;100.00;101376.19;5073715;28;20425;-65
2023/10/09 03:35:23;;;;;;;2.83;1.10;;;;;;;11.37;100.00;101352.03;5074624;28;20426;-65
2023/10/09 03:37:50;;;;;;;2.30;0.60;;;;;;;11.33;100.00;101351.81;5073488;28;20850;-65
2023/10/09 03:40:17;;;;;;;2.70;1.13;;;;;;;11.33;100.00;101349.09;5073869;28;20449;-65
2023/10/09 03:42:45;;;;;;;2.77;1.00;;;;;;;11.34;100.00;101330.94;5074003;28;20856;-65
2023/10/09 03:45:24;;;;;;;2.90;1.37;;;;;;;11.35;100.00;101321.69;5073863;28;20434;-65
2023/10/09 03:47:56;;;;;;;2.60;1.10;;;;;;;11.28;100.00;101315.78;5074390;28;20514;-65
2023/10/09 03:50:26;;;;;;;2.73;0.90;;;;;;;11.23;100.00;101321.25;5073770;28;20456;-65
2023/10/09 03:52:54;;;;;;;3.47;1.53;;;;;;;11.26;100.00;101312.56;5073731;28;20437;-65
2023/10/09 03:55:27;;;;;;;3.17;1.20;;;;;;;11.24;100.00;101312.84;5073869;28;20449;-65
2023/10/09 03:57:57;;;;;;;3.37;0.97;;;;;;;11.24;100.00;101315.53;5073564;28;21070;-65
2023/10/09 04:00:28;;;;;;;2.50;0.97;;;;;;;11.19;100.00;101321.03;5073680;28;20449;-65
2023/10/09 04:02:56;;;;;;;3.73;1.30;;;;;;;11.15;100.00;101333.53;5073745;28;20517;-65
2023/10/09 04:05:23;;;;;;;3.60;1.37;;;;;;;11.09;100.00;101343.63;5073934;28;20441;-65
2023/10/09 04:07:52;;;;;;;2.47;0.93;;;;;;;11.02;100.00;101354.00;5073735;28;20799;-65
2023/10/09 04:10:43;;;;;;;3.23;1.13;;;;;;;10.98;100.00;101363.81;5073873;28;20445;-65
2023/10/09 04:13:16;;;;;;;8.90;1.13;;;;;;;10.92;100.00;101359.50;5073603;28;20425;-65
2023/10/09 04:15:43;;;;;;;2.80;0.97;;;;;;;10.93;100.00;101363.03;5073508;28;20425;-65
2023/10/09 04:18:15;;;;;;;2.07;0.70;;;;;;;10.97;100.00;101348.63;5073418;28;20489;-65
2023/10/09 04:23:35;;;;;;;3.10;1.03;;;;;;;11.08;100.00;101333.88;5062810;28;20442;-65
2023/10/09 04:26:10;;;;;;;3.60;1.33;;;;;;;11.13;100.00;101332.22;5073244;28;20839;-65
2023/10/09 04:28:41;;;;;;;2.63;0.80;;;;;;;11.11;100.00;101317.06;5073779;28;20422;-65
2023/10/09 04:31:09;;;;;;;2.63;0.97;;;;;;;11.07;100.00;101336.91;5073831;28;20422;-65
2023/10/09 04:33:42;;;;;;;3.20;1.17;;;;;;;11.11;100.00;101340.63;5073238;28;20964;-65
2023/10/09 04:36:16;;;;;;;2.70;0.80;;;;;;;11.16;100.00;101340.59;5073364;28;20466;-65
2023/10/09 04:38:55;;;;;;;2.77;1.17;;;;;;;11.14;100.00;101331.94;5073449;28;20470;-65
2023/10/09 04:41:27;;;;;;;8.23;1.20;;;;;;;11.19;100.00;101339.19;5073660;28;20509;-65
2023/10/09 04:44:13;;;;;;;3.40;1.27;;;;;;;11.19;100.00;101329.16;5073423;28;20512;-65
2023/10/09 04:46:43;;;;;;;2.40;0.80;;;;;;;11.22;100.00;101325.88;5072951;28;20496;-65
2023/10/09 04:49:26;;;;;;;2.67;0.97;;;;;;;11.22;100.00;101322.38;5072966;28;20522;-65
2023/10/09 04:52:04;;;;;;;2.87;1.10;;;;;;;11.25;100.00;101317.19;5073732;28;20425;-65
2023/10/09 04:54:39;;;;;;;3.50;1.53;;;;;;;11.27;100.00;101314.19;5072975;28;20516;-65
2023/10/09 04:57:17;;;;;;;2.57;0.80;;;;;;;11.26;100.00;101302.53;5072859;28;20487;-65
2023/10/09 04:59:47;;;;;;;2.40;0.90;;;;;;;11.27;100.00;101304.13;5073334;28;20520;-65
2023/10/09 05:02:19;;;;;;;2.13;0.60;;;;;;;11.26;100.00;101297.09;5072888;28;20430;-65
2023/10/09 05:04:48;;;;;;;1.97;0.60;;;;;;;11.27;100.00;101309.56;5073200;28;20421;-65
2023/10/09 05:07:49;;;;;;;1.97;0.53;;;;;;;11.26;100.00;101299.81;5072827;28;20885;-65
2023/10/09 05:10:17;;;;;;;2.03;0.67;;;;;;;11.25;100.00;101305.53;5072581;28;20445;-65
2023/10/09 05:12:46;;;;;;;2.57;0.50;;;;;;;11.23;100.00;101308.50;5074846;28;20520;-65
2023/10/09 05:15:15;;;;;;;3.30;1.03;;;;;;;11.19;100.00;101299.34;5076644;28;20452;-65
2023/10/09 05:17:51;;;;;;;2.13;0.80;;;;;;;11.18;100.00;101297.72;5076499;28;20488;-65
2023/10/09 05:23:25;;;;;;;2.30;0.90;;;;;;;11.18;100.00;101292.31;5075588;28;20442;-66
2023/10/09 05:25:53;;;;;;;2.23;0.73;;;;;;;11.19;100.00;101302.03;5076687;28;20802;-65
2023/10/09 05:31:56;;;;;;;2.30;0.80;;;;;;;11.17;100.00;101300.72;5091769;27;20515;-67
2023/10/09 05:34:22;;;;;;;3.50;1.13;;;;;;;11.18;100.00;101294.22;5091322;28;20444;-68
2023/10/09 05:36:49;;;;;;;3.00;1.20;;;;;;;11.18;100.00;101294.22;5091542;28;20915;-66
2023/10/09 05:39:22;;;;;;;3.00;1.00;;;;;;;11.18;100.00;101295.00;5091165;28;20527;-69
2023/10/09 05:41:52;;;;;;;4.17;1.47;;;;;;;11.16;100.00;101294.50;5090992;28;20799;-69
2023/10/09 05:49:54;;;;;;;6.13;1.97;;;;;;;11.13;100.00;101295.06;5090954;28;20963;-69
2023/10/09 05:52:32;;;;;;;2.87;1.33;;;;;;;11.06;100.00;101310.84;5090727;28;20844;-68
2023/10/09 05:55:48;;;;;;;4.20;1.30;;;;;;;11.02;100.00;101307.94;5090968;28;20511;-68
2023/10/09 06:02:17;;;;;;;3.90;1.17;;;;;;;11.00;100.00;101309.28;5059596;28;20484;-68
2023/10/09 06:03:54;;;;;;;4.70;1.50;;;;;;;11.02;100.00;101302.50;5090216;28;20437;-68
2023/10/09 06:06:33;;;;;;;2.93;1.17;;;;;;;11.03;100.00;101300.59;5090609;28;20539;-68
2023/10/09 06:09:28;;;;;;;3.43;1.23;;;;;;;11.06;100.00;101297.28;5068093;22;20489;-72
2023/10/09 06:14:57;;;;;;;2.13;0.70;;;;;;;11.13;100.00;101294.25;5049923;28;20447;-72
2023/10/09 06:17:24;;;;;;;3.10;0.80;;;;;;;11.16;100.00;101286.38;5049903;28;20469;-72
2023/10/09 06:19:58;;;;;;;2.33;0.97;;;;;;;11.23;100.00;101288.72;5050463;28;20560;-72
2023/10/09 06:25:13;;;;;;;3.33;0.83;;;;;;;11.25;100.00;101283.84;5049880;28;20470;-72
2023/10/09 06:30:26;;;;;;;2.53;0.80;;;;;;;11.26;100.00;101280.81;5049522;28;20571;-71
2023/10/09 06:35:39;;;;;;;3.13;1.30;;;;;;;11.37;100.00;101282.31;5041214;28;20762;-70
2023/10/09 06:38:22;;;;;;;2.20;0.90;;;;;;;11.42;100.00;101286.06;5049514;28;20874;-71
2023/10/09 06:43:47;;;;;;;3.60;1.20;;;;;;;11.49;100.00;101279.19;5011865;28;20820;-71
2023/10/09 06:49:27;;;;;;;2.67;0.90;;;;;;;11.49;100.00;101281.09;5035841;28;20407;-70
2023/10/09 06:51:55;;;;;;;2.83;1.13;;;;;;;11.51;100.00;101265.34;5035787;28;20784;-70
2023/10/09 06:54:25;;;;;;;2.20;0.70;;;;;;;11.55;100.00;101261.78;5036330;28;20887;-70
2023/10/09 07:02:28;;;;;;;3.40;1.30;;;;;;;11.75;100.00;101255.25;5035487;28;20955;-71
2023/10/09 07:04:57;;;;;;;2.80;0.90;;;;;;;11.71;100.00;101253.41;5035987;28;20439;-72
2023/10/09 07:07:25;;;;;;;3.90;1.23;;;;;;;11.67;100.00;101264.06;5035434;28;20498;-73
2023/10/09 07:12:44;;;;;;;2.70;1.17;;;;;;;11.65;100.00;101266.25;5035780;28;20965;-74
2023/10/09 07:17:53;;;;;;;3.60;1.70;;;;;;;11.67;100.00;101253.19;5012534;28;20517;-74
2023/10/09 07:23:14;;;;;;;2.83;1.10;;;;;;;11.71;100.00;101248.00;5035396;28;20825;-74
2023/10/09 07:25:41;;;;;;;2.80;1.10;;;;;;;11.75;100.00;101251.75;5035640;28;20427;-73
2023/10/09 07:28:28;;;;;;;2.10;0.63;;;;;;;11.82;100.00;101258.47;5035855;28;20443;-73
2023/10/09 07:30:57;;;;;;;3.20;1.20;;;;;;;11.91;100.00;101263.22;5035572;28;20474;-71
2023/10/09 07:33:33;;;;;;;3.47;1.00;;;;;;;12.00;100.00;101264.19;5035234;28;20443;-71
2023/10/09 07:36:06;;;;;;;3.27;1.47;;;;;;;12.02;100.00;101242.97;5035049;28;20459;-71
2023/10/09 07:38:36;;;;;;;3.00;1.10;;;;;;;12.07;100.00;101259.19;5035152;28;20467;-71
2023/10/09 07:43:46;;;;;;;3.30;1.47;;;;;;;12.11;100.00;101263.72;5034848;28;20443;-71
2023/10/09 07:46:33;;;;;;;4.27;1.67;;;;;;;12.14;100.00;101272.41;5034927;28;20458;-71
2023/10/09 07:49:08;;;;;;;2.90;1.10;;;;;;;12.12;100.00;101264.53;5034900;28;20431;-71
2023/10/09 07:51:36;;;;;;;3.90;1.53;;;;;;;12.08;100.00;101271.66;5035668;28;20466;-71
2023/10/09 07:54:07;;;;;;;3.97;1.20;;;;;;;12.09;100.00;101281.44;5034010;28;20544;-71
2023/10/09 07:56:38;;;;;;;3.70;1.70;;;;;;;12.09;100.00;101292.31;5035234;28;20478;-71
2023/10/09 07:59:10;;;;;;;3.50;1.60;;;;;;;12.05;100.00;101288.56;5034997;28;20423;-71
2023/10/09 08:01:37;;;;;;;3.40;1.83;;;;;;;12.11;100.00;101290.88;5034897;28;20431;-71
2023/10/09 08:04:11;;;;;;;4.67;1.60;;;;;;;12.16;100.00;101290.00;5034935;28;20435;-71
2023/10/09 08:06:43;;;;;;;3.03;1.30;;;;;;;12.18;100.00;101300.59;5035051;28;20517;-71
2023/10/09 08:09:17;;;;;;;4.03;1.37;;;;;;;12.21;100.00;101313.56;5034589;28;20534;-71
2023/10/09 08:14:45;;;;;;;3.67;1.27;;;;;;;12.20;100.00;101326.34;5034494;28;20824;-71
2023/10/09 08:17:17;;;;;;;4.30;1.57;;;;;;;12.14;100.00;101313.94;5034860;28;20472;-71
2023/10/09 08:19:53;;;;;;;4.23;1.20;;;;;;;12.15;100.00;101310.13;5034580;28;20842;-71
2023/10/09 08:25:08;;;;;;;3.50;2.00;;;;;;;12.19;100.00;101313.06;5034609;28;20407;-71
2023/10/09 08:27:54;;;;;;;4.07;1.57;;;;;;;12.20;100.00;101309.25;5034740;28;20514;-71
2023/10/09 08:30:40;;;;;;;2.87;1.37;;;;;;;12.21;100.00;101319.00;5034299;28;20588;-71
2023/10/09 08:35:55;;;;;;;3.53;1.13;;;;;;;12.21;100.00;101310.84;5034069;28;20407;-71
2023/10/09 08:38:23;;;;;;;3.70;1.30;;;;;;;12.18;100.00;101312.25;5034155;28;20452;-71
2023/10/09 08:40:54;;;;;;;3.47;1.43;;;;;;;12.21;100.00;101300.78;5034440;28;20497;-71
2023/10/09 08:43:22;;;;;;;4.27;1.60;;;;;;;12.23;100.00;101297.81;5034065;28;20489;-71
2023/10/09 08:45:51;;;;;;;2.50;1.20;;;;;;;12.23;100.00;101297.81;5033873;28;20546;-71
2023/10/09 08:48:19;;;;;;;4.37;1.50;;;;;;;12.20;100.00;101299.19;5034247;28;20443;-71
2023/10/09 08:50:49;;;;;;;4.57;1.60;;;;;;;12.25;100.00;101290.16;5033808;28;20823;-71
2023/10/09 08:53:17;;;;;;;4.03;1.30;;;;;;;12.34;100.00;101291.91;5033976;28;20432;-71
2023/10/09 08:55:46;;;;;;;4.33;1.67;;;;;;;12.37;100.00;101285.88;5034162;28;20470;-71
2023/10/09 08:58:18;;;;;;;3.67;1.30;;;;;;;12.41;100.00;101286.09;5033840;28;20450;-71
2023/10/09 09:00:45;;;;;;;3.60;1.90;;;;;;;12.38;100.00;101289.41;5033574;28;20423;-71
2023/10/09 09:03:12;;;;;;;5.47;1.70;;;;;;;12.38;100.00;101300.28;5033795;28;20451;-71
2023/10/09 09:05:39;;;;;;;3.47;1.63;;;;;;;12.41;100.00;101290.72;5033214;28;20927;-71
2023/10/09 09:08:23;;;;;;;2.50;0.87;;;;;;;12.53;100.00;101296.53;5033602;28;20934;-71
2023/10/09 09:10:58;;;;;;;4.50;1.90;;;;;;;12.57;100.00;101286.66;5033394;28;20498;-71
2023/10/09 09:13:31;;;;;;;3.87;1.77;;;;;;;12.56;100.00;101282.31;5034011;28;20422;-71
2023/10/09 09:15:58;;;;;;;4.53;1.80;;;;;;;12.55;100.00;101283.44;5033649;28;20458;-71
2023/10/09 09:18:31;;;;;;;4.97;2.00;;;;;;;12.60;100.00;101277.91;5034223;28;20443;-71
2023/10/09 09:20:58;;;;;;;3.20;1.33;;;;;;;12.68;100.00;101279.94;5033957;28;20447;-71
2023/10/09 09:23:26;;;;;;;3.93;1.70;;;;;;;12.76;100.00;101284.72;5033727;28;20521;-71
2023/10/09 09:25:59;;;;;;;5.17;1.40;;;;;;;12.77;100.00;101280.88;5033565;28;20518;-72
2023/10/09 09:28:32;;;;;;;4.37;1.63;;;;;;;12.73;100.00;101287.22;5033490;28;20450;-71
2023/10/09 09:31:12;;;;;;;2.67;1.03;;;;;;;12.67;100.00;101289.22;5033501;28;20525;-72
2023/10/09 09:33:39;;;;;;;4.10;1.70;;;;;;;12.66;100.00;101290.34;5033425;28;20439;-73
2023/10/09 09:36:11;;;;;;;3.00;1.40;;;;;;;12.62;100.00;101294.75;5033091;28;20871;-71
2023/10/09 09:38:48;;;;;;;2.50;1.00;;;;;;;12.60;100.00;101286.06;5033422;28;20497;-71
2023/10/09 09:41:23;;;;;;;3.63;1.60;;;;;;;12.62;100.00;101294.75;5033471;28;20423;-71
2023/10/09 09:43:56;;;;;;;3.67;1.13;;;;;;;12.61;100.00;101301.25;5033390;28;20419;-71
2023/10/09 09:46:27;;;;;;;2.80;1.20;;;;;;;12.66;100.00;101301.19;5032993;28;20463;-71
2023/10/09 09:49:00;;;;;;;7.33;1.73;;;;;;;12.70;100.00;101304.09;5033098;28;20805;-71
2023/10/09 09:51:29;;;;;;;3.37;1.60;;;;;;;12.66;100.00;101297.66;5033609;28;20533;-71
2023/10/09 09:53:56;;;;;;;3.00;1.17;;;;;;;12.70;100.00;101295.97;5033629;28;20451;-71
2023/10/09 09:56:26;;;;;;;3.87;1.73;;;;;;;12.76;100.00;101301.03;5033179;28;20521;-71
2023/10/09 09:58:56;;;;;;;3.80;2.07;;;;;;;12.77;100.00;101299.91;5033427;28;20818;-71
2023/10/09 10:01:27;;;;;;;6.43;2.10;;;;;;;12.78;100.00;101300.72;5034007;28;20467;-71
2023/10/09 10:03:59;;;;;;;2.87;1.10;;;;;;;12.69;100.00;101288.91;5033616;28;20477;-71
2023/10/09 10:06:28;;;;;;;3.03;1.17;;;;;;;12.70;100.00;101288.59;5033065;28;20534;-71
2023/10/09 10:08:54;;;;;;;5.13;2.07;;;;;;;12.72;100.00;101282.88;5033486;28;20474;-71
2023/10/09 10:11:46;;;;;;;3.20;1.07;;;;;;;12.69;100.00;101284.28;5033286;28;20553;-71
2023/10/09 10:14:21;;;;;;;4.20;1.43;;;;;;;12.71;100.00;101279.38;5027455;28;20522;-71
2023/10/09 10:17:04;;;;;;;2.97;1.13;;;;;;;12.68;100.00;101282.66;5034386;28;20918;-71
2023/10/09 10:22:50;;;;;;;2.93;0.90;;;;;;;12.70;100.00;101287.81;5036635;28;20399;-71
2023/10/09 10:25:42;;;;;;;3.60;1.20;;;;;;;12.72;100.00;101289.13;5036491;28;20443;-71
2023/10/09 10:28:42;;;;;;;4.23;1.67;;;;;;;12.75;100.00;101283.09;5037017;28;20427;-71
2023/10/09 10:31:13;;;;;;;3.30;1.43;;;;;;;12.79;100.00;101294.16;5036262;28;20521;-71
2023/10/09 10:34:07;;;;;;;4.57;1.50;;;;;;;12.86;100.00;101283.72;5037000;28;20423;-71
2023/10/09 10:36:34;;;;;;;4.13;0.90;;;;;;;12.91;100.00;101274.66;5036459;28;20471;-71
2023/10/09 10:39:05;;;;;;;9.40;1.53;;;;;;;12.93;100.00;101283.34;5036800;28;20443;-71
2023/10/09 10:41:36;;;;;;;4.07;1.77;;;;;;;12.98;100.00;101280.53;5036381;28;20492;-71
2023/10/09 10:44:33;;;;;;;4.73;1.40;;;;;;;13.04;100.00;101279.31;5036458;28;20466;-71
2023/10/09 10:46:53;;;;;;;2.70;1.00;;;;;;;13.04;100.00;101273.88;5035863;28;20465;-71
2023/10/09 10:49:26;;;;;;;3.10;1.70;;;;;;;13.07;100.00;101281.44;5036153;28;20455;-71
2023/10/09 10:52:01;;;;;;;3.07;1.23;;;;;;;13.09;100.00;101277.31;5035832;28;20477;-71
2023/10/09 10:57:19;;;;;;;3.63;1.83;;;;;;;13.08;100.00;101274.91;5035638;28;20974;-71
2023/10/09 10:59:49;;;;;;;3.60;1.73;;;;;;;12.99;100.00;101277.50;5036045;28;20427;-71
2023/10/09 11:02:27;;;;;;;4.33;1.97;;;;;;;13.02;100.00;101267.94;5036473;28;20523;-71
2023/10/09 11:05:14;;;;;;;6.60;2.13;;;;;;;13.06;100.00;101266.25;5036561;28;20423;-71
2023/10/09 11:07:41;;;;;;;3.10;1.60;;;;;;;13.04;100.00;101265.72;5036163;28;20475;-71
2023/10/09 11:10:10;;;;;;;3.77;1.63;;;;;;;13.13;100.00;101262.00;5035898;28;20517;-71
2023/10/09 11:12:55;;;;;;;4.07;2.50;;;;;;;13.26;100.00;101265.88;5035804;28;20536;-71
2023/10/09 11:15:37;;;;;;;4.00;1.90;;;;;;;13.37;100.00;101256.41;5035797;28;20511;-71
2023/10/09 11:18:08;;;;;;;3.07;1.50;;;;;;;13.47;100.00;101258.09;5036124;28;20462;-71
2023/10/09 11:20:35;;;;;;;3.13;1.53;;;;;;;13.49;100.00;101252.34;5035742;28;20411;-71
2023/10/09 11:23:18;;;;;;;3.17;1.70;;;;;;;13.41;100.00;101250.34;5035689;28;20478;-71
2023/10/09 11:25:52;;;;;;;4.33;2.03;;;;;;;13.33;100.00;101243.72;5035442;28;20510;-71
2023/10/09 11:28:42;;;;;;;4.67;2.30;;;;;;;13.19;100.00;101259.16;5035585;28;20438;-71
2023/10/09 11:31:11;;;;;;;3.90;2.20;;;;;;;13.18;100.00;101257.56;5035731;28;20537;-71
2023/10/09 11:33:48;;;;;;;4.27;2.10;;;;;;;13.17;100.00;101256.75;5035740;28;20497;-71
2023/10/09 11:36:14;;;;;;;4.17;1.93;;;;;;;13.29;100.00;101246.22;5035478;28;20534;-70
2023/10/09 11:38:45;;;;;;;4.43;2.13;;;;;;;13.46;100.00;101236.63;5035374;28;21039;-70
2023/10/09 11:41:23;;;;;;;6.83;2.37;;;;;;;13.75;100.00;101239.00;5035297;28;20880;-70
2023/10/09 11:43:54;;;;;;;4.10;2.13;;;;;;;13.98;100.00;101242.56;5035263;28;20431;-71
2023/10/09 11:49:32;;;;;;;4.63;2.67;;;;;;;14.45;98.28;101229.47;5033007;28;20446;-71
2023/10/09 11:54:50;;;;;;;4.80;2.40;;;;;;;14.05;94.28;101223.88;5035579;28;20443;-70
2023/10/09 11:57:17;;;;;;;5.07;2.83;;;;;;;13.95;96.67;101213.25;5035421;28;20478;-70
2023/10/09 11:59:44;;;;;;;4.80;2.20;;;;;;;13.96;98.57;101206.66;5034554;28;21046;-70
2023/10/09 12:02:12;;;;;;;3.77;1.87;;;;;;;13.91;98.45;101204.88;5034895;28;20446;-70
2023/10/09 12:04:41;;;;;;;5.23;2.23;;;;;;;13.84;97.29;101204.47;5034857;28;20813;-71
2023/10/09 12:07:10;;;;;;;5.17;2.40;;;;;;;13.70;95.45;101220.06;5034315;28;20479;-70
2023/10/09 12:09:37;;;;;;;4.43;2.13;;;;;;;13.62;95.96;101225.09;5034768;28;20442;-70
2023/10/09 12:12:05;;;;;;;4.23;1.80;;;;;;;13.38;95.35;101225.34;5034957;28;20486;-70
2023/10/09 12:14:33;;;;;;;3.10;1.70;;;;;;;13.26;96.09;101226.97;5034998;28;20438;-70
2023/10/09 12:17:05;;;;;;;4.50;2.10;;;;;;;13.25;97.54;101231.63;5034595;28;20557;-70
2023/10/09 12:19:32;;;;;;;3.90;1.67;;;;;;;13.20;98.21;101225.44;5034581;28;20446;-70
2023/10/09 12:22:03;;;;;;;5.17;2.00;;;;;;;13.20;97.90;101234.41;5034542;28;20446;-70
2023/10/09 12:24:30;;;;;;;4.50;2.20;;;;;;;13.24;99.18;101235.44;5034493;28;20497;-71
2023/10/09 12:26:57;;;;;;;3.83;1.80;;;;;;;13.25;100.00;101237.06;5034649;28;20463;-71
2023/10/09 12:29:24;;;;;;;2.70;1.40;;;;;;;13.21;100.00;101235.22;5034312;28;20924;-71
2023/10/09 12:31:58;;;;;;;4.57;2.17;;;;;;;13.08;100.00;101228.66;5034239;28;20490;-71
2023/10/09 12:34:26;;;;;;;3.97;2.30;;;;;;;13.07;100.00;101224.34;5034361;28;20431;-71
2023/10/09 12:36:53;;;;;;;4.90;2.30;;;;;;;13.14;100.00;101230.16;5034891;28;20498;-71
2023/10/09 12:39:22;;;;;;;4.67;2.37;;;;;;;13.27;100.00;101218.50;5033669;28;20454;-71
2023/10/09 12:41:53;;;;;;;8.80;2.63;;;;;;;13.35;100.00;101225.94;5034456;28;20443;-71
2023/10/09 12:44:20;;;;;;;3.87;1.80;;;;;;;13.51;100.00;101223.72;5034503;28;20423;-71
2023/10/09 12:46:52;;;;;;;5.53;2.00;;;;;;;13.62;100.00;101219.66;5034035;28;20459;-71
2023/10/09 12:49:19;;;;;;;4.60;2.33;;;;;;;13.69;100.00;101213.81;5034118;28;20797;-71
2023/10/09 12:51:46;;;;;;;6.40;2.73;;;;;;;13.69;100.00;101207.56;5033924;28;20493;-71